createdAt,value
2022-12-24T00:01:21.547Z,85.40
2022-12-24T00:03:49.282Z,85.40
2022-12-24T00:06:19.404Z,85.40
2022-12-24T00:08:47.076Z,85.40
2022-12-24T00:11:14.847Z,85.40
2022-12-24T00:13:42.296Z,85.40
2022-12-24T00:16:09.872Z,85.40
2022-12-24T00:18:43.396Z,85.40
2022-12-24T00:21:13.360Z,85.60
2022-12-24T00:23:41.404Z,85.40
2022-12-24T00:26:09.092Z,85.40
2022-12-24T00:28:36.823Z,85.40
2022-12-24T00:31:12.587Z,85.40
2022-12-24T00:33:40.425Z,85.40
2022-12-24T00:36:08.804Z,85.40
2022-12-24T00:38:36.551Z,85.40
2022-12-24T00:41:06.003Z,85.40
2022-12-24T00:43:33.662Z,85.50
2022-12-24T00:46:01.205Z,85.50
2022-12-24T00:48:28.758Z,85.40
2022-12-24T00:50:56.258Z,85.40
2022-12-24T00:53:23.805Z,85.40
2022-12-24T00:55:51.226Z,86.00
2022-12-24T00:58:18.774Z,85.50
2022-12-24T01:00:46.266Z,85.40
2022-12-24T01:03:13.799Z,85.40
2022-12-24T01:05:41.271Z,85.40
2022-12-24T01:08:08.837Z,85.50
2022-12-24T01:10:36.258Z,85.50
2022-12-24T01:13:04.465Z,85.50
2022-12-24T01:15:32.197Z,85.50
2022-12-24T01:17:59.794Z,85.50
2022-12-24T01:20:31.809Z,85.50
2022-12-24T01:22:59.312Z,85.40
2022-12-24T01:25:26.905Z,85.40
2022-12-24T01:27:54.338Z,85.40
2022-12-24T01:30:21.904Z,85.40
2022-12-24T01:32:49.371Z,85.40
2022-12-24T01:35:17.193Z,85.40
2022-12-24T01:37:44.760Z,85.40
2022-12-24T01:40:35.357Z,85.40
2022-12-24T01:43:21.155Z,85.40
2022-12-24T01:45:52.766Z,85.40
2022-12-24T01:48:35.199Z,85.40
2022-12-24T01:51:09.083Z,85.40
2022-12-24T01:53:39.729Z,85.40
2022-12-24T01:56:08.323Z,85.40
2022-12-24T01:58:37.494Z,85.40
2022-12-24T02:01:07.959Z,85.40
2022-12-24T02:03:35.847Z,85.40
2022-12-24T02:06:04.333Z,85.50
2022-12-24T02:08:42.798Z,85.50
2022-12-24T02:11:22.271Z,85.50
2022-12-24T02:13:59.374Z,85.50
2022-12-24T02:16:29.705Z,85.50
2022-12-24T02:19:15.370Z,85.50
2022-12-24T02:22:00.216Z,85.50
2022-12-24T02:24:52.576Z,85.60
2022-12-24T02:27:32.849Z,85.60
2022-12-24T02:30:00.490Z,85.60
2022-12-24T02:33:06.109Z,85.70
2022-12-24T02:36:04.194Z,85.70
2022-12-24T02:38:37.475Z,85.80
2022-12-24T02:41:18.719Z,85.80
2022-12-24T02:43:49.015Z,85.90
2022-12-24T02:46:30.734Z,85.80
2022-12-24T02:49:00.853Z,85.90
2022-12-24T02:51:28.433Z,85.90
2022-12-24T02:53:55.987Z,85.90
2022-12-24T02:56:35.725Z,85.90
2022-12-24T02:59:21.867Z,85.90
2022-12-24T03:02:14.054Z,85.90
2022-12-24T03:04:58.000Z,85.90
2022-12-24T03:07:48.913Z,85.90
2022-12-24T03:10:37.426Z,85.90
2022-12-24T03:13:14.182Z,86.00
2022-12-24T03:15:42.657Z,86.00
2022-12-24T03:18:12.884Z,86.00
2022-12-24T03:20:53.246Z,86.00
2022-12-24T03:23:20.913Z,86.50
2022-12-24T03:25:48.798Z,86.00
2022-12-24T03:28:19.459Z,86.00
2022-12-24T03:30:49.060Z,86.00
2022-12-24T03:33:17.557Z,86.00
2022-12-24T03:35:46.067Z,86.00
2022-12-24T03:38:13.726Z,86.00
2022-12-24T03:40:41.253Z,86.00
2022-12-24T03:43:08.722Z,86.00
2022-12-24T03:45:36.425Z,86.00
2022-12-24T03:48:04.244Z,86.00
2022-12-24T03:50:32.721Z,86.00
2022-12-24T03:53:00.383Z,86.00
2022-12-24T03:55:27.974Z,86.00
2022-12-24T03:57:55.517Z,86.00
2022-12-24T04:00:23.099Z,86.00
2022-12-24T04:02:50.671Z,86.00
2022-12-24T04:05:20.417Z,86.00
2022-12-24T04:07:48.275Z,86.00
2022-12-24T04:10:17.292Z,86.00
2022-12-24T04:12:44.823Z,86.00
2022-12-24T04:15:12.405Z,86.00
2022-12-24T04:17:39.953Z,86.00
2022-12-24T04:20:08.116Z,86.00
2022-12-24T04:22:35.679Z,86.00
2022-12-24T04:25:03.232Z,86.00
2022-12-24T04:27:31.495Z,86.00
2022-12-24T04:29:59.141Z,86.00
2022-12-24T04:32:27.616Z,86.00
2022-12-24T04:34:55.524Z,86.00
2022-12-24T04:37:22.989Z,86.00
2022-12-24T04:39:50.566Z,86.00
2022-12-24T04:42:18.031Z,86.00
2022-12-24T04:44:45.545Z,86.00
2022-12-24T04:47:13.111Z,86.10
2022-12-24T04:49:40.607Z,86.20
2022-12-24T04:52:08.101Z,86.20
2022-12-24T04:54:35.630Z,86.20
2022-12-24T04:57:03.052Z,86.30
2022-12-24T04:59:30.591Z,86.30
2022-12-24T05:01:58.534Z,86.30
2022-12-24T05:04:26.156Z,86.40
2022-12-24T05:06:53.655Z,86.50
2022-12-24T05:09:21.306Z,86.50
2022-12-24T05:11:48.848Z,86.60
2022-12-24T05:14:16.304Z,86.60
2022-12-24T05:16:44.276Z,86.70
2022-12-24T05:19:11.887Z,86.70
2022-12-24T05:21:39.355Z,86.70
2022-12-24T05:24:26.090Z,86.80
2022-12-24T05:26:57.586Z,86.80
2022-12-24T05:29:25.519Z,86.70
2022-12-24T05:31:53.045Z,86.80
2022-12-24T05:34:20.444Z,86.80
2022-12-24T05:36:47.959Z,86.70
2022-12-24T05:39:17.177Z,86.70
2022-12-24T05:41:45.339Z,86.70
2022-12-24T05:44:13.593Z,86.60
2022-12-24T05:46:41.319Z,86.70
2022-12-24T05:49:09.259Z,86.90
2022-12-24T05:51:37.013Z,86.90
2022-12-24T05:54:05.443Z,86.90
2022-12-24T05:56:33.571Z,86.90
2022-12-24T05:59:01.089Z,87.00
2022-12-24T06:01:28.748Z,86.90
2022-12-24T06:03:57.353Z,87.00
2022-12-24T06:06:27.323Z,87.00
2022-12-24T06:08:55.859Z,87.00
2022-12-24T06:11:26.790Z,87.00
2022-12-24T06:13:55.460Z,87.00
2022-12-24T06:16:24.698Z,87.20
2022-12-24T06:18:52.594Z,87.10
2022-12-24T06:21:20.488Z,87.10
2022-12-24T06:23:48.171Z,87.10
2022-12-24T06:26:21.173Z,87.10
2022-12-24T06:28:50.505Z,87.10
2022-12-24T06:31:20.983Z,87.60
2022-12-24T06:33:49.056Z,87.10
2022-12-24T06:36:22.722Z,87.10
2022-12-24T06:38:51.454Z,87.00
2022-12-24T06:41:19.750Z,87.00
2022-12-24T06:43:49.170Z,87.60
2022-12-24T06:46:17.906Z,87.00
2022-12-24T06:48:46.469Z,87.00
2022-12-24T06:51:15.825Z,86.90
2022-12-24T06:53:43.509Z,86.90
2022-12-24T06:56:13.481Z,86.90
2022-12-24T06:58:42.158Z,86.90
2022-12-24T07:01:13.133Z,86.80
2022-12-24T07:03:41.449Z,86.80
2022-12-24T07:06:21.953Z,86.80
2022-12-24T07:08:49.687Z,86.80
2022-12-24T07:11:17.779Z,86.70
2022-12-24T07:13:46.399Z,86.70
2022-12-24T07:16:14.118Z,86.70
2022-12-24T07:18:41.959Z,86.70
2022-12-24T07:21:10.071Z,86.60
2022-12-24T07:23:37.777Z,86.70
2022-12-24T07:26:06.999Z,86.60
2022-12-24T07:28:34.979Z,86.50
2022-12-24T07:31:02.630Z,86.40
2022-12-24T07:33:30.523Z,86.90
2022-12-24T07:36:00.342Z,86.40
2022-12-24T07:38:28.672Z,86.30
2022-12-24T07:40:56.552Z,86.90
2022-12-24T07:43:24.454Z,86.90
2022-12-24T07:45:54.583Z,86.30
2022-12-24T07:48:22.159Z,86.30
2022-12-24T07:50:50.974Z,86.20
2022-12-24T07:53:19.111Z,86.20
2022-12-24T07:55:46.617Z,86.70
2022-12-24T07:58:14.030Z,86.00
2022-12-24T08:00:44.081Z,85.90
2022-12-24T08:03:19.299Z,85.90
2022-12-24T08:05:47.731Z,85.90
2022-12-24T08:08:15.797Z,86.00
2022-12-24T08:10:44.498Z,85.90
2022-12-24T08:13:12.646Z,85.90
2022-12-24T08:15:40.342Z,85.90
2022-12-24T08:18:07.807Z,86.00
2022-12-24T08:20:37.616Z,86.00
2022-12-24T08:23:05.138Z,86.00
2022-12-24T08:25:32.676Z,85.90
2022-12-24T08:28:02.873Z,85.90
2022-12-24T08:30:30.921Z,85.90
2022-12-24T08:32:58.392Z,85.90
2022-12-24T08:35:25.858Z,85.90
2022-12-24T08:37:53.354Z,85.90
2022-12-24T08:40:21.008Z,85.90
2022-12-24T08:42:48.565Z,85.90
2022-12-24T08:45:16.292Z,85.90
2022-12-24T08:47:43.929Z,85.90
2022-12-24T08:50:12.115Z,85.90
2022-12-24T08:52:39.756Z,85.90
2022-12-24T08:55:08.067Z,86.00
2022-12-24T08:57:38.863Z,86.00
2022-12-24T09:00:07.868Z,86.00
2022-12-24T09:02:35.782Z,86.10
2022-12-24T09:05:03.348Z,86.10
2022-12-24T09:07:31.014Z,86.10
2022-12-24T09:09:58.550Z,86.20
2022-12-24T09:12:25.995Z,86.20
2022-12-24T09:14:58.159Z,86.20
2022-12-24T09:17:30.570Z,86.20
2022-12-24T09:19:58.202Z,86.30
2022-12-24T09:22:25.837Z,86.30
2022-12-24T09:24:56.481Z,86.40
2022-12-24T09:27:23.966Z,86.40
2022-12-24T09:29:51.635Z,86.50
2022-12-24T09:32:19.200Z,86.50
2022-12-24T09:34:46.843Z,86.60
2022-12-24T09:37:14.421Z,86.60
2022-12-24T09:39:41.916Z,86.60
2022-12-24T09:42:38.618Z,86.70
2022-12-24T09:45:27.076Z,86.80
2022-12-24T09:48:05.940Z,86.80
2022-12-24T09:50:43.878Z,86.90
2022-12-24T09:53:40.764Z,86.90
2022-12-24T09:56:21.373Z,86.90
2022-12-24T09:58:57.955Z,86.80
2022-12-24T10:01:25.659Z,86.80
2022-12-24T10:03:53.285Z,86.80
2022-12-24T10:06:32.114Z,86.80
2022-12-24T10:09:14.436Z,86.90
2022-12-24T10:12:02.344Z,86.90
2022-12-24T10:14:30.037Z,86.90
2022-12-24T10:16:57.582Z,86.90
2022-12-24T10:20:12.259Z,86.80
2022-12-24T10:22:58.386Z,86.70
2022-12-24T10:25:50.018Z,86.70
2022-12-24T10:28:43.362Z,86.60
2022-12-24T10:31:11.829Z,86.50
2022-12-24T10:33:43.991Z,86.40
2022-12-24T10:36:19.300Z,86.40
2022-12-24T10:38:47.316Z,86.20
2022-12-24T10:41:16.387Z,86.10
2022-12-24T10:43:46.180Z,86.00
2022-12-24T10:46:23.732Z,85.80
2022-12-24T10:49:01.008Z,85.60
2022-12-24T10:51:37.763Z,85.50
2022-12-24T10:54:13.862Z,85.50
2022-12-24T10:56:44.898Z,85.50
2022-12-24T10:59:50.862Z,85.40
2022-12-24T11:02:37.510Z,85.20
2022-12-24T11:05:30.057Z,85.30
2022-12-24T11:08:14.264Z,85.30
2022-12-24T11:10:55.134Z,85.40
2022-12-24T11:13:39.596Z,85.40
2022-12-24T11:16:24.425Z,85.30
2022-12-24T11:18:54.900Z,85.30
2022-12-24T11:21:28.667Z,85.20
2022-12-24T11:24:16.392Z,85.30
2022-12-24T11:26:45.231Z,85.50
2022-12-24T11:29:13.535Z,85.70
2022-12-24T11:31:42.886Z,85.80
2022-12-24T11:34:27.985Z,85.90
2022-12-24T11:37:18.008Z,85.80
2022-12-24T11:39:58.777Z,85.70
2022-12-24T11:42:38.531Z,85.70
2022-12-24T11:45:27.969Z,85.60
2022-12-24T11:47:56.582Z,85.40
2022-12-24T11:50:26.382Z,85.20
2022-12-24T11:53:20.756Z,84.90
2022-12-24T11:55:50.962Z,84.60
2022-12-24T11:58:26.219Z,84.40
2022-12-24T12:01:15.449Z,84.40
2022-12-24T12:03:50.622Z,84.40
2022-12-24T12:06:39.089Z,84.20
2022-12-24T12:09:31.928Z,84.40
2022-12-24T12:12:07.221Z,84.20
2022-12-24T12:14:39.169Z,84.10
2022-12-24T12:17:37.398Z,83.90
2022-12-24T12:20:11.523Z,83.70
2022-12-24T12:23:00.569Z,83.40
2022-12-24T12:25:48.303Z,83.30
2022-12-24T12:28:33.885Z,83.20
2022-12-24T12:31:24.169Z,83.10
2022-12-24T12:34:29.118Z,82.90
2022-12-24T12:37:03.284Z,83.00
2022-12-24T12:39:32.152Z,83.10
2022-12-24T12:42:18.069Z,82.90
2022-12-24T12:45:10.364Z,82.80
2022-12-24T12:47:50.010Z,83.10
2022-12-24T12:50:26.810Z,83.00
2022-12-24T12:53:24.589Z,83.10
2022-12-24T12:55:56.879Z,83.10
2022-12-24T12:58:27.524Z,83.10
2022-12-24T13:01:07.656Z,83.40
2022-12-24T13:03:44.168Z,83.10
2022-12-24T13:06:26.813Z,82.50
2022-12-24T13:09:08.988Z,82.50
2022-12-24T13:12:04.627Z,82.60
2022-12-24T13:15:02.238Z,82.30
2022-12-24T13:18:09.839Z,82.30
2022-12-24T13:20:42.655Z,82.60
2022-12-24T13:23:15.122Z,82.20
2022-12-24T13:25:48.444Z,82.40
2022-12-24T13:28:18.698Z,82.50
2022-12-24T13:30:46.812Z,82.60
2022-12-24T13:33:41.683Z,82.50
2022-12-24T13:36:18.960Z,82.10
2022-12-24T13:39:00.313Z,81.90
2022-12-24T13:41:39.936Z,82.20
2022-12-24T13:44:14.248Z,82.20
2022-12-24T13:46:59.922Z,82.30
2022-12-24T13:49:39.681Z,82.30
2022-12-24T13:52:13.353Z,82.20
2022-12-24T13:54:49.908Z,82.20
2022-12-24T13:57:32.424Z,82.30
2022-12-24T14:00:21.561Z,82.50
2022-12-24T14:03:13.196Z,82.60
2022-12-24T14:05:50.210Z,82.40
2022-12-24T14:08:27.021Z,82.50
2022-12-24T14:11:19.010Z,82.60
2022-12-24T14:13:49.283Z,82.60
2022-12-24T14:16:31.438Z,82.60
2022-12-24T14:19:45.714Z,82.70
2022-12-24T14:22:34.471Z,82.70
2022-12-24T14:25:07.328Z,82.70
2022-12-24T14:27:46.488Z,82.70
2022-12-24T14:30:24.407Z,82.60
2022-12-24T14:32:53.223Z,82.30
2022-12-24T14:35:24.742Z,82.50
2022-12-24T14:38:02.213Z,82.50
2022-12-24T14:40:32.136Z,82.60
2022-12-24T14:43:15.008Z,82.40
2022-12-24T14:45:45.441Z,82.50
2022-12-24T14:48:31.218Z,82.80
2022-12-24T14:51:20.747Z,82.80
2022-12-24T14:54:29.285Z,82.60
2022-12-24T14:57:14.852Z,82.70
2022-12-24T14:59:49.657Z,82.70
2022-12-24T15:02:24.943Z,82.60
2022-12-24T15:05:13.589Z,82.70
2022-12-24T15:08:03.519Z,82.80
2022-12-24T15:10:43.172Z,82.80
2022-12-24T15:13:23.995Z,82.80
2022-12-24T15:15:54.647Z,82.80
2022-12-24T15:18:28.327Z,82.80
2022-12-24T15:21:04.090Z,82.70
2022-12-24T15:23:37.417Z,82.60
2022-12-24T15:26:15.152Z,82.60
2022-12-24T15:28:44.712Z,82.40
2022-12-24T15:31:21.231Z,82.30
2022-12-24T15:33:50.589Z,82.30
2022-12-24T15:36:31.788Z,82.10
2022-12-24T15:39:03.818Z,81.90
2022-12-24T15:42:01.701Z,81.90
2022-12-24T15:44:41.003Z,81.80
2022-12-24T15:47:14.818Z,81.70
2022-12-24T15:49:47.134Z,81.60
2022-12-24T15:52:17.208Z,81.60
2022-12-24T15:54:50.780Z,81.70
2022-12-24T15:57:31.880Z,81.70
2022-12-24T16:00:01.566Z,81.60
2022-12-24T16:02:43.339Z,81.70
2022-12-24T16:05:28.950Z,81.80
2022-12-24T16:08:07.958Z,81.90
2022-12-24T16:10:41.844Z,81.90
2022-12-24T16:13:23.766Z,82.00
2022-12-24T16:15:56.215Z,82.00
2022-12-24T16:18:33.482Z,82.10
2022-12-24T16:21:02.113Z,82.00
2022-12-24T16:23:45.135Z,82.00
2022-12-24T16:26:12.835Z,82.00
2022-12-24T16:28:42.612Z,82.00
2022-12-24T16:31:28.896Z,82.10
2022-12-24T16:33:59.755Z,82.10
2022-12-24T16:36:27.912Z,82.30
2022-12-24T16:39:16.882Z,82.30
2022-12-24T16:42:03.203Z,82.30
2022-12-24T16:44:30.713Z,82.30
2022-12-24T16:47:00.722Z,82.40
2022-12-24T16:49:29.258Z,82.30
2022-12-24T16:51:58.038Z,82.40
2022-12-24T16:54:25.570Z,82.50
2022-12-24T16:56:53.073Z,82.50
2022-12-24T16:59:23.728Z,82.60
2022-12-24T17:01:51.956Z,82.60
2022-12-24T17:04:20.138Z,82.60
2022-12-24T17:06:49.960Z,82.60
2022-12-24T17:09:17.963Z,82.60
2022-12-24T17:11:45.542Z,82.70
2022-12-24T17:14:20.119Z,82.80
2022-12-24T17:16:48.443Z,82.80
2022-12-24T17:19:18.028Z,82.90
2022-12-24T17:21:46.032Z,82.90
2022-12-24T17:24:14.648Z,82.90
2022-12-24T17:26:43.720Z,82.90
2022-12-24T17:29:11.541Z,82.90
2022-12-24T17:31:40.276Z,82.90
2022-12-24T17:34:07.851Z,82.90
2022-12-24T17:36:35.309Z,83.00
2022-12-24T17:39:08.794Z,83.00
2022-12-24T17:41:36.242Z,82.90
2022-12-24T17:44:05.141Z,82.90
2022-12-24T17:46:34.994Z,82.80
2022-12-24T17:49:02.587Z,82.80
2022-12-24T17:51:31.389Z,82.80
2022-12-24T17:53:58.958Z,82.70
2022-12-24T17:56:27.529Z,82.60
2022-12-24T17:58:55.280Z,82.60
2022-12-24T18:01:25.709Z,82.60
2022-12-24T18:03:53.902Z,82.60
2022-12-24T18:06:21.522Z,82.60
2022-12-24T18:08:49.903Z,82.60
2022-12-24T18:11:27.099Z,82.70
2022-12-24T18:13:56.352Z,82.70
2022-12-24T18:16:27.147Z,82.80
2022-12-24T18:18:55.696Z,82.90
2022-12-24T18:21:25.993Z,82.90
2022-12-24T18:23:56.837Z,82.90
2022-12-24T18:26:27.492Z,83.00
2022-12-24T18:28:58.234Z,83.00
2022-12-24T18:31:26.957Z,83.10
2022-12-24T18:33:56.070Z,83.00
2022-12-24T18:36:24.338Z,83.00
2022-12-24T18:38:52.410Z,83.00
2022-12-24T18:41:23.651Z,83.00
2022-12-24T18:43:51.669Z,83.10
2022-12-24T18:46:22.316Z,83.00
2022-12-24T18:48:52.234Z,83.00
2022-12-24T18:51:23.616Z,83.30
2022-12-24T18:53:51.818Z,83.10
2022-12-24T18:56:24.472Z,83.60
2022-12-24T18:59:09.712Z,83.00
2022-12-24T19:01:37.521Z,83.10
2022-12-24T19:04:05.309Z,83.10
2022-12-24T19:06:33.072Z,83.10
2022-12-24T19:09:01.875Z,83.10
2022-12-24T19:11:32.267Z,83.10
2022-12-24T19:14:02.397Z,83.10
2022-12-24T19:16:31.825Z,83.10
2022-12-24T19:18:59.476Z,83.20
2022-12-24T19:21:27.131Z,83.20
2022-12-24T19:23:54.743Z,83.20
2022-12-24T19:26:22.966Z,83.20
2022-12-24T19:28:51.284Z,83.20
2022-12-24T19:31:24.883Z,83.30
2022-12-24T19:33:55.678Z,83.20
2022-12-24T19:36:26.554Z,83.30
2022-12-24T19:38:57.743Z,83.40
2022-12-24T19:41:29.226Z,83.50
2022-12-24T19:43:59.934Z,83.50
2022-12-24T19:46:31.498Z,83.60
2022-12-24T19:49:02.440Z,83.60
2022-12-24T19:51:30.286Z,83.60
2022-12-24T19:53:59.388Z,83.60
2022-12-24T19:56:29.171Z,83.60
2022-12-24T19:58:58.627Z,83.60
2022-12-24T20:01:29.932Z,83.60
2022-12-24T20:03:58.144Z,83.60
2022-12-24T20:06:28.945Z,83.60
2022-12-24T20:09:02.154Z,83.80
2022-12-24T20:11:30.036Z,83.80
2022-12-24T20:13:59.727Z,83.90
2022-12-24T20:16:28.194Z,84.00
2022-12-24T20:19:00.300Z,84.00
2022-12-24T20:21:28.513Z,84.10
2022-12-24T20:23:56.486Z,84.10
2022-12-24T20:26:26.279Z,84.20
2022-12-24T20:28:54.000Z,84.20
2022-12-24T20:31:26.995Z,84.20
2022-12-24T20:33:55.838Z,84.20
2022-12-24T20:36:24.421Z,84.10
2022-12-24T20:38:53.610Z,84.10
2022-12-24T20:41:23.857Z,84.00
2022-12-24T20:43:52.151Z,84.00
2022-12-24T20:46:22.939Z,83.90
2022-12-24T20:48:51.972Z,83.90
2022-12-24T20:51:25.480Z,83.90
2022-12-24T20:53:56.490Z,83.90
2022-12-24T20:56:25.295Z,83.80
2022-12-24T20:58:55.516Z,83.80
2022-12-24T21:01:25.691Z,83.80
2022-12-24T21:03:55.131Z,83.80
2022-12-24T21:06:23.717Z,83.70
2022-12-24T21:08:53.417Z,83.80
2022-12-24T21:11:40.595Z,83.70
2022-12-24T21:14:08.641Z,84.30
2022-12-24T21:16:37.291Z,83.70
2022-12-24T21:19:07.875Z,83.70
2022-12-24T21:21:36.150Z,83.70
2022-12-24T21:24:05.050Z,83.60
2022-12-24T21:26:32.977Z,83.60
2022-12-24T21:29:01.687Z,83.70
2022-12-24T21:31:29.614Z,83.70
2022-12-24T21:33:57.895Z,83.70
2022-12-24T21:36:25.535Z,83.70
2022-12-24T21:38:54.947Z,83.80
2022-12-24T21:41:23.929Z,83.70
2022-12-24T21:43:51.484Z,83.80
2022-12-24T21:46:25.428Z,83.70
2022-12-24T21:49:14.388Z,83.80
2022-12-24T21:51:44.295Z,83.70
2022-12-24T21:54:23.913Z,83.70
2022-12-24T21:57:11.103Z,83.80
2022-12-24T21:59:40.290Z,83.80
2022-12-24T22:02:14.430Z,84.00
2022-12-24T22:04:42.933Z,84.10
2022-12-24T22:07:41.180Z,84.20
2022-12-24T22:10:29.420Z,84.30
2022-12-24T22:13:01.421Z,84.50
2022-12-24T22:15:29.006Z,84.60
2022-12-24T22:17:56.473Z,84.60
2022-12-24T22:20:24.119Z,84.60
2022-12-24T22:22:51.744Z,84.60
2022-12-24T22:25:19.259Z,84.60
2022-12-24T22:27:46.802Z,84.60
2022-12-24T22:30:14.421Z,84.60
2022-12-24T22:32:41.948Z,84.60
2022-12-24T22:35:09.768Z,84.60
2022-12-24T22:37:37.271Z,84.60
2022-12-24T22:40:05.097Z,84.60
2022-12-24T22:42:35.727Z,84.60
2022-12-24T22:45:03.684Z,84.60
2022-12-24T22:47:31.278Z,84.70
2022-12-24T22:49:58.887Z,84.70
2022-12-24T22:52:26.597Z,84.80
2022-12-24T22:54:54.083Z,84.80
2022-12-24T22:57:21.601Z,84.90
2022-12-24T22:59:49.551Z,85.00
2022-12-24T23:02:22.131Z,85.00
2022-12-24T23:04:53.363Z,85.00
2022-12-24T23:07:20.936Z,85.00
2022-12-24T23:09:48.533Z,85.00
2022-12-24T23:12:35.945Z,85.00
2022-12-24T23:15:03.939Z,85.00
2022-12-24T23:17:31.423Z,85.10
2022-12-24T23:19:59.024Z,85.10
2022-12-24T23:22:26.485Z,85.10
2022-12-24T23:24:53.961Z,85.10
2022-12-24T23:27:21.519Z,85.30
2022-12-24T23:29:49.012Z,85.30
2022-12-24T23:32:16.458Z,85.30
2022-12-24T23:34:44.065Z,85.40
2022-12-24T23:37:11.563Z,85.40
2022-12-24T23:39:39.039Z,85.60
2022-12-24T23:42:06.487Z,85.60
2022-12-24T23:44:34.052Z,85.70
2022-12-24T23:47:01.663Z,85.80
2022-12-24T23:49:29.286Z,85.80
2022-12-24T23:51:56.728Z,85.80
2022-12-24T23:54:24.222Z,85.80
2022-12-24T23:56:51.658Z,85.80
2022-12-24T23:59:19.280Z,85.70
